Timeline UpdatesTrip UpdatesNews PostsPvt PostsTravel TipsAdmin PostsConv PostsFollowed PostsChat RequestsBlog PostsPNR Posts

Disclaimer
Search
 
 
Wed Sep 17, 2014 03:01:21 ISTHomeTrainsΣChainsAtlasPNRForumGalleryNewsFAQTripsMembersLoginFeedback
No Recent News for this Train
Other Trains in the News **new
Latest...
.
Sat Jul 30, 2011 (04:46AM)
⇐ Return Journey: Train# 57562

57561/Kacheguda - Manmad Passenger (UnReserved)

Time-Table HAS CHANGED.
Sep 03 (11:09AM)
Change Departure Station:
Change Arrival Station:
Post a Train Travel TipPost a Train Travel Tip **new
Post a Comment/Question/Picture/VideoPost a Comment/Question/Picture/Video
Pantry/Catering
✕ NO Pantry Car
✓ Catering Avbl
RSA - Rake Sharing
57542-57562-57561-57590-57541-57558-57557
Rake/Coach Composition
LOCO-SLR-GEN-GEN-GEN-GEN-GEN-GEN-GEN-GEN-GEN-GEN-SLR.
Loco
MLY WDM 2/3A or WDG 3A.
News    PNR    Forum    Time-Table    Availability    Fare Chart    Map    Arr/Dep History    Trips    Gallery    ΣChains    X/O    Timeline    
Travel Time: 8h 30m    55 halts    Distance: 307 km    Avg Speed: 36 km/hr
Type: Passenger
Zone: SCR/South Central
Departs @ 04:50 (Avg 3m late)
Platform# 1
SMTWTFS
Hyderabad Kacheguda/KCG 
Arrives @ 13:20 (Avg 42m late)
Platform# ???
SMTWTFS
Purna Junction/PAU 

55 halts. 58 intermediate Stations between Hyderabad Kacheguda and Purna Junction

Show ALL intermediate Stations  Show Old Time-Table

#CodeStation NameX/OArrivesAvgDepartsAvgHaltPFDay#KmSpeedElevZoneAddress
1KCG»Hyderabad Kacheguda (5)»  -04:50+3110.058494mSCRHyderabad - 500027, Telangana
2VARVidya Nagar (2)  04:52-04:53-1m--11.944505mSCRHyderabad, Telangana
3JOOJamai Osmania (2)  04:55-04:56-1m--13.436515mSCRHyderabad, Telangana
4ATCArts College (2)X  04:57-04:58-1m--14.033521mSCRHyderabad, Telangana
5STPDSitafalmandi (4)  05:00+805:01+81m215.180533mSCRSecunderabad, Telangana
6LGDHLalaguda Gate (2)  05:03-05:04-1m--17.74543mSCRSecunderabad, Telangana
7MJFMalkajgiri (3)X  05:18+905:19+101m318.727535mSCRSecunderabad, Telangana
8DYEDayanand Nagar (2)  05:21-05:22-1m--19.636537mSCRSecunderabad, Telangana
9SFXSafilguda (2)  05:23-05:24-1m--110.234544mSCRSecunderabad, Telangana
10RKORamakistapuram Gate (2)  05:27+005:28+01m--111.933561mSCRSecunderabad, Telangana
11AMQAmmuguda Halt (2)  05:30-05:31-1m--113.083569mSCRSecunderabad, Telangana
12CVBCavalry Barracks (3)  05:32+1105:33+121m3114.424575mSCRSecunderabad, Telangana
13ALWAlwal (2)  05:36-05:37-1m--115.648580mSCRSecunderabad, Telangana
14BOZBolarum Bazar (2)  05:39-05:40-1m--117.213584mSCRSecunderabad, Telangana
15BMOBolarum (3)X  05:48+1005:49+111m1118.927597mSCRSecunderabad, Telangana
16GDPLGundla Pochampally (1)X  06:00 06:01+806:01 06:02+101m--124.2103601mSCRRangareddy Dist., Telangana
17GWVGowdavalli (1)X  06:05-06:06-1m1129.423601mSCRRangareddy Dist., Telangana
18MEDMedchal (3)  06:15+1006:16+121m2132.879602mSCRRangareddy Dist., Telangana
19DBVDabilpur (1)  06:19-06:20-1m1136.780611mSCRRangareddy Dist., Telangana
20KUCHKuchavaram Halt (1)X  06:25+006:26+01m1143.420595mSCRRangareddy, Telangana
21MOBManoharabad (2)  06:34+1206:35+191m--146.0-593mSCRMedak Dist., Telangana
22PAPMPalata Potaram (1)  06:39-06:40-1m1158.626522mSCRMedak Dist., Telangana
23BMPLBrahmanapalli (1)  06:44-06:45-1m1160.321528mSCRMedak Dist., Telangana
24MEMasaipet (2)X  06:53+1806:54+221m--163.146520mSCRMedak Dist., Telangana
25SHANSrinivasa NagarX  06:58-06:59-1m--166.232522mSCRMedak Dist., Telangana
26WDRWadiaram (2)  07:08+2107:09+231m--171.066547mSCRMedak Dist., Telangana
27MZLMirzapalli (1)  07:15+2507:16+291m1177.529530mSCRMedak Dist., Telangana
28AKEAkanapet (1)X  07:38+1807:39+211m1188.337566mSCRMedak District., Telangana
29BKUBhiknur  07:49+2007:50+221m--194.461575mSCRNizamabad Dist., Telangana
30THPRTippapur (1)  07:54-07:55-1m1198.555549mSCRNizamabad Dist., Telangana
31TMDTalmadla  08:01+2508:02+251m--1104.023559mSCRNizamabad Dist., Telangana
32KMCKamareddi (3)  08:28+1208:30+132m11114.075528mSCRNizamabad Dist., Telangana
33UPWUppalavai  08:39+1508:40+161m--1125.357529mSCRNizamabad Dist., Telangana
34SCPSirnapalli  08:51+1608:52+161m--1135.753456mSCRNizamabad Dist., Telangana
35IDLIndalvai (1)X  09:01+1809:02+201m11143.647439mSCRNizamabad Dist., Telangana
36DHPDichpalliX  09:14+1909:15+201m--1153.139424mSCRNizamabad Dist., Telangana
37NZBNizamabad (3)  09:35+1609:40+165m31165.947384mSCRNizamabad, Telangana
38JKMJankampet Junction (1)  09:48+1909:49+191m11172.163391mSCRJankampet Junction nizamabad dist., Telangana
39NVTNavipet (2)  09:58+2109:59+211m--1181.670374mSCRNizamabad Dist., Telangana
40FKBFakrabad (1)  10:05-10:06-1m11188.618348mSCRNizamabad Dist., Telangana
41BSXBasar (2)X  10:28+910:30+122m21195.359358mSCRDist Adilabad, Telangana
42DABDharmabad (2)  10:40+1310:41+161m--1205.178354mSCRDegaon, Maharashtra
43SQESamarala Halt  10:46-10:47-1m--1211.654360mSCRDharmabad, Maharashtra
44KEKKarkheli  10:55+1710:56+181m--1218.955358mSCRBiloli, Maharashtra
45BLSABolsa  11:04+1811:05+181m--1226.256361mSCRDharmabad, Maharashtra
46UMRIUmri (1)  11:14+1811:15+181m11234.694381mSCRHuzur Sahib Nanded, Maharashtra
47SLGHShelgaon Halt  11:20-11:21-1m--1242.433378mSCRMudkhed, Maharashtra
48SVNSivungaon  11:29+2011:30+201m--1246.917395mSCRHuzur Sahib Nanded, Maharashtra
49MUEMudkhed Junction (4)  11:55+2411:57+262m--1254.161378mSCRMudkhed, Maharashtra
50MGCMugat  12:06+3012:07+311m--1263.240360mSCRHuzur Sahib Nanded, Maharashtra
51PARDPathradX  12:12-12:13-1m--1266.539363mSCRHuzur Sahib Nanded, Maharashtra
52MTDIMaltekdi  12:23 12:24+3012:24 12:25+311m--1273.733362mSCRNanded, Maharashtra
53NEDHazur Sahib Nanded (4)X  12:30+2612:35+295m--1276.443366mSCRNanded, Maharashtra
54WNGWanegaon  12:44-12:45-1m--1282.931371mSCRChudawa, Maharashtra
55LBGLimbgaon (2)X  12:54+3812:55+391m--1287.564390mSCRHuzur Sahib Nanded, Maharashtra
56CRUChudawa (1)X  13:04+4213:05+481m11297.140392mSCRHingoli, Maharashtra
57PAU•Purna Junction (4)•X  13:20+4213:25+525m--1307.052384mSCRPurna, Maharashtra
58MQLMirkhal  13:39+5913:40+591m--1319.136405mSCRPurna, Maharashtra
59PIZPingli (1)  13:49+5913:50+1:021m11324.551399mSCRParbhani, Maharashtra
60PBNParbhani Junction (3)X  14:03+4514:05+482m11335.573414mSCRParbhani 431401, Maharashtra
61PGPergaon  14:15+1:0914:16+1:101m--1347.673441mSCRParbhani, Maharashtra
62DAVDevalgaon Avchar  14:21+1:1314:22+1:151m--1353.679425mSCRParbhani, Maharashtra
63MVOManwath Road (2)  14:29+1:1714:30+1:191m--1362.954421mSCRParbhani, Maharashtra
64DGPPDhengli PimpalgaonX  14:36+1:2514:37+1:271m--1368.326407mSCRSatuna, Maharashtra
65SELUSelu (2)  14:59+1:0615:00+1:081m--1377.968436mSCRParbhani, Maharashtra
66SCOSatunaX  15:09+1:2015:10+1:211m--1388.153440mSCRSatona, Maharashtra
67UPRUsmanpur  15:19+1:2115:20+1:221m--1396.063444mSCRUsmanpur, Maharashtra
68PTUPartur (2)  15:29+1:2115:30+1:231m--1405.548465mSCRJalna, Maharashtra
69PDGParadgaon  15:39-15:40-1m--1412.742454mSCRUsmanpur, Maharashtra
70RNERanjani  15:49+1:2215:50+1:231m--1418.975469mSCRJalna, Maharashtra
71KODIKodiX  15:59+1:2616:00+1:281m--1430.266473mSCRRanjani, Maharashtra
72SVDSarwariX  16:09+1:2516:10+1:251m--1440.18493mSCRRanjani, Maharashtra
73JJalna (3)  17:23+2717:25+322m--1449.981502mSCRJalna, Maharashtra
74BDUBadnapur  17:39+3717:40+441m--1468.971523mSCRJalna, Maharashtra
75KMVKarmad  17:53+5017:54+551m--1484.324567mSCRAurangabad, Maharashtra
76CTHChikalthan  18:04+1:0118:05+1:021m--1488.2-582mSCRAurangabad, Maharashtra
77MKDDMukundwadi Halt (1)X  18:09-18:10-1m11502.511580mSCRAurangabad, Maharashtra
78AWBAurangabad (5)X  19:05+2319:10+275m--1512.583561mSCRAurangabad 431001, Maharashtra
79DLBDaulatabad (1)  19:19+3219:20+331m11525.062575mSCRDaulatabad, Maharashtra
80POZPotul (1)  19:38 19:29+2919:39 19:30+301m11534.351554mSCRLasur, Maharashtra
81LSRLasur (2)X  19:44+3319:45+331m--1546.1101536mSCRAurangabad, Maharashtra
82KAJGKaranjgaonX  19:51+3819:52+411m--1556.231523mSCRLasur, Maharashtra
83PSDParsoda  20:01+4020:02+441m--1560.962530mSCRRotegaon, Maharashtra
84RGORotegaonX  20:14+4420:15+461m--1573.2145547mSCRAurangabad, Maharashtra
85TRTarur  20:24+5120:25+521m--1595.011586mSCRTaru, Maharashtra
86NSLNagarsol (2)X  20:59+2921:00+351m--1601.211589mSCRDist. Nashik, Maharashtra
87ANKAnkai (3)X  21:54+2521:55+1:281m31611.111620mSCRDist. Nashik, Maharashtra
88MMRManmad Junction (6)  23:05+1:15-61624.0-580mCRManmad 423104, Maharashtra
Scroll to Top
Scroll to Bottom